Time;durP1;ratioP1;P1;durP2;ratioP2;P2;SDS_P1;SDS_P2;PMS_P1;PMS_P2;Temp;Humidity;BMP_temperature;BMP_pressure;BME280_temperature;BME280_humidity;BME280_pressure;Samples;Min_cycle;Max_cycle;Signal;HPM_P1;HPM_P2
2022/07/26 00:01:44;;;;;;;17.77;5.85;;;;;;;;;;5068156;28;20036;-72
2022/07/26 00:04:11;;;;;;;56.67;7.82;;;;;;;;;;5067124;28;20562;-71
2022/07/26 00:06:43;;;;;;;17.15;6.00;;;;;;;;;;5067226;28;20078;-72
2022/07/26 00:09:10;;;;;;;27.95;6.63;;;;;;;;;;5067473;28;20029;-72
2022/07/26 00:11:37;;;;;;;69.05;8.90;;;;;;;;;;5071764;28;20051;-71
2022/07/26 00:14:04;;;;;;;26.35;6.25;;;;;;;;;;5068046;28;20414;-71
2022/07/26 00:16:31;;;;;;;20.85;6.10;;;;;;;;;;5067603;28;20067;-70
2022/07/26 00:18:58;;;;;;;44.90;7.00;;;;;;;;;;5067478;28;20514;-70
2022/07/26 00:21:25;;;;;;;29.75;6.45;;;;;;;;;;5068189;28;20041;-69
2022/07/26 00:23:51;;;;;;;53.70;7.78;;;;;;;;;;5070564;28;20043;-69
2022/07/26 00:26:18;;;;;;;65.30;8.95;;;;;;;;;;5068746;28;20055;-70
2022/07/26 00:28:45;;;;;;;20.92;5.97;;;;;;;;;;5067320;28;20439;-68
2022/07/26 00:31:12;;;;;;;28.70;6.13;;;;;;;;;;5068266;28;20049;-69
2022/07/26 00:33:39;;;;;;;41.00;7.88;;;;;;;;;;5066545;28;20044;-69
2022/07/26 00:36:06;;;;;;;31.88;6.35;;;;;;;;;;5067784;28;20041;-70
2022/07/26 00:38:33;;;;;;;12.40;5.25;;;;;;;;;;5069359;28;20044;-70
2022/07/26 00:41:00;;;;;;;36.13;6.32;;;;;;;;;;5071422;28;20044;-70
2022/07/26 00:43:27;;;;;;;26.80;6.68;;;;;;;;;;5067192;28;20029;-70
2022/07/26 00:45:53;;;;;;;31.38;6.43;;;;;;;;;;5067025;28;20052;-70
2022/07/26 00:48:20;;;;;;;42.03;8.23;;;;;;;;;;5067167;28;20066;-71
2022/07/26 00:50:47;;;;;;;19.52;5.60;;;;;;;;;;5071158;28;20048;-70
2022/07/26 00:53:13;;;;;;;22.23;5.97;;;;;;;;;;5067404;28;20037;-68
2022/07/26 00:55:40;;;;;;;39.15;6.90;;;;;;;;;;5066614;28;20047;-72
2022/07/26 00:58:07;;;;;;;16.77;5.63;;;;;;;;;;5066932;28;20131;-72
2022/07/26 01:00:33;;;;;;;33.72;5.93;;;;;;;;;;5067015;28;20061;-72
2022/07/26 01:03:01;;;;;;;50.28;6.93;;;;;;;;;;5068627;28;20114;-72
2022/07/26 01:05:28;;;;;;;33.30;6.03;;;;;;;;;;5070621;28;20494;-72
2022/07/26 01:07:55;;;;;;;38.85;6.72;;;;;;;;;;5065746;28;20044;-71
2022/07/26 01:10:21;;;;;;;27.65;5.57;;;;;;;;;;5066670;28;20090;-72
2022/07/26 01:12:48;;;;;;;28.40;5.70;;;;;;;;;;5069101;28;20504;-72
2022/07/26 01:15:15;;;;;;;23.50;5.10;;;;;;;;;;5066939;28;20475;-72
2022/07/26 01:17:42;;;;;;;23.70;6.00;;;;;;;;;;5067201;28;20044;-72
2022/07/26 01:20:10;;;;;;;22.13;5.30;;;;;;;;;;5066988;28;20131;-72
2022/07/26 01:22:37;;;;;;;25.90;5.75;;;;;;;;;;5066602;28;20111;-70
2022/07/26 01:25:04;;;;;;;19.20;5.40;;;;;;;;;;5066423;28;20079;-69
2022/07/26 01:27:30;;;;;;;22.23;5.72;;;;;;;;;;5066887;28;20040;-69
2022/07/26 01:29:59;;;;;;;45.97;6.90;;;;;;;;;;5069837;28;20146;-69
2022/07/26 01:32:26;;;;;;;35.03;6.25;;;;;;;;;;5070177;28;20115;-69
2022/07/26 01:34:52;;;;;;;27.08;5.50;;;;;;;;;;5065464;28;20085;-70
2022/07/26 01:37:19;;;;;;;40.83;6.18;;;;;;;;;;5068975;28;20032;-69
2022/07/26 01:39:45;;;;;;;35.80;6.32;;;;;;;;;;5066013;28;20518;-70
2022/07/26 01:42:12;;;;;;;28.70;5.95;;;;;;;;;;5066462;28;20068;-72
2022/07/26 01:44:39;;;;;;;11.70;4.80;;;;;;;;;;5070898;28;20045;-71
2022/07/26 01:47:06;;;;;;;19.40;4.75;;;;;;;;;;5067531;28;20209;-72
2022/07/26 01:49:32;;;;;;;62.88;7.60;;;;;;;;;;5065935;28;20055;-72
2022/07/26 01:51:59;;;;;;;28.98;5.55;;;;;;;;;;5070940;28;20158;-73
2022/07/26 01:54:25;;;;;;;31.10;6.22;;;;;;;;;;5070723;28;20407;-73
2022/07/26 01:56:52;;;;;;;33.38;5.72;;;;;;;;;;5074072;28;20033;-71
2022/07/26 01:59:18;;;;;;;31.05;6.22;;;;;;;;;;5071863;28;20040;-71
2022/07/26 02:01:45;;;;;;;68.93;8.52;;;;;;;;;;5069629;28;20453;-72
2022/07/26 02:04:57;;;;;;;63.95;7.90;;;;;;;;;;5069117;28;20375;-74
2022/07/26 02:06:58;;;;;;;19.10;5.90;;;;;;;;;;5069901;28;20506;-74
2022/07/26 02:09:25;;;;;;;36.75;6.25;;;;;;;;;;5069233;28;20116;-74
2022/07/26 02:11:55;;;;;;;34.83;6.13;;;;;;;;;;5073262;28;20132;-74
2022/07/26 02:14:21;;;;;;;41.58;6.35;;;;;;;;;;5071783;28;20140;-70
2022/07/26 02:16:58;;;;;;;23.00;5.75;;;;;;;;;;5070018;28;20070;-70
2022/07/26 02:19:26;;;;;;;52.20;6.85;;;;;;;;;;5071141;28;20041;-70
2022/07/26 02:21:53;;;;;;;36.20;6.72;;;;;;;;;;5070051;28;20156;-72
2022/07/26 02:24:20;;;;;;;24.70;5.90;;;;;;;;;;5069621;28;20493;-72
2022/07/26 02:26:47;;;;;;;22.13;5.55;;;;;;;;;;5074931;28;20461;-72
2022/07/26 02:29:13;;;;;;;20.45;5.50;;;;;;;;;;5070180;28;20094;-71
2022/07/26 02:31:40;;;;;;;22.77;5.47;;;;;;;;;;5071179;28;20079;-72
2022/07/26 02:34:13;;;;;;;;;;;;;;;;;;5069413;28;20418;-72
2022/07/26 02:36:39;;;;;;;45.53;6.93;;;;;;;;;;5068884;28;20026;-72
2022/07/26 02:39:06;;;;;;;44.55;6.53;;;;;;;;;;5070283;28;20511;-71
2022/07/26 02:41:33;;;;;;;25.15;5.57;;;;;;;;;;5072964;28;20517;-73
2022/07/26 02:43:59;;;;;;;45.65;6.55;;;;;;;;;;5069474;28;20123;-73
2022/07/26 02:46:26;;;;;;;13.68;5.03;;;;;;;;;;5069232;28;20115;-75
2022/07/26 02:48:52;;;;;;;56.25;7.45;;;;;;;;;;5069452;28;20052;-75
2022/07/26 02:51:19;;;;;;;29.90;6.40;;;;;;;;;;5069759;28;20033;-74
2022/07/26 02:53:46;;;;;;;28.85;6.47;;;;;;;;;;5073656;28;20044;-74
2022/07/26 02:56:12;;;;;;;31.17;5.78;;;;;;;;;;5069558;28;20128;-72
2022/07/26 02:58:39;;;;;;;23.02;5.93;;;;;;;;;;5068958;28;20521;-72
2022/07/26 03:01:05;;;;;;;126.97;12.10;;;;;;;;;;5069964;28;20067;-72
2022/07/26 03:03:32;;;;;;;39.70;7.43;;;;;;;;;;5067887;28;20055;-71
2022/07/26 03:06:02;;;;;;;59.40;7.65;;;;;;;;;;5070592;28;20053;-71
2022/07/26 03:08:28;;;;;;;42.00;6.82;;;;;;;;;;5070925;28;20051;-74
2022/07/26 03:10:55;;;;;;;24.33;6.30;;;;;;;;;;5068399;28;20093;-73
2022/07/26 03:13:21;;;;;;;23.58;6.05;;;;;;;;;;5069886;28;20513;-73
2022/07/26 03:15:48;;;;;;;60.58;8.02;;;;;;;;;;5068557;28;20067;-71
2022/07/26 03:18:14;;;;;;;57.67;7.57;;;;;;;;;;5069486;28;20043;-72
2022/07/26 03:20:41;;;;;;;30.40;6.78;;;;;;;;;;5073284;28;20114;-72
2022/07/26 03:23:07;;;;;;;50.38;7.57;;;;;;;;;;5068617;28;20036;-73
2022/07/26 03:25:34;;;;;;;29.27;6.30;;;;;;;;;;5068656;28;20051;-73
2022/07/26 03:28:03;;;;;;;22.02;6.63;;;;;;;;;;5068835;28;20094;-73
2022/07/26 03:30:29;;;;;;;54.60;7.80;;;;;;;;;;5069777;28;20488;-75
2022/07/26 03:32:56;;;;;;;34.97;7.38;;;;;;;;;;5072126;28;20413;-72
2022/07/26 03:35:22;;;;;;;42.20;7.38;;;;;;;;;;5069618;28;20072;-71
2022/07/26 03:37:49;;;;;;;98.45;10.65;;;;;;;;;;5067160;28;20487;-72
2022/07/26 03:40:16;;;;;;;42.33;8.57;;;;;;;;;;5068180;28;20036;-73
2022/07/26 03:42:44;;;;;;;22.65;7.28;;;;;;;;;;5068737;28;20068;-73
2022/07/26 03:45:11;;;;;;;51.35;8.25;;;;;;;;;;5069659;28;20182;-80
2022/07/26 03:47:38;;;;;;;32.33;8.60;;;;;;;;;;5073927;28;20048;-77
2022/07/26 03:50:05;;;;;;;58.63;9.93;;;;;;;;;;5068139;28;20076;-76
2022/07/26 03:52:31;;;;;;;64.28;20.02;;;;;;;;;;5068022;28;20044;-75
2022/07/26 03:54:58;;;;;;;75.43;25.35;;;;;;;;;;5068236;28;20047;-75
2022/07/26 03:57:25;;;;;;;70.32;28.98;;;;;;;;;;5068129;28;20445;-74
2022/07/26 03:59:53;;;;;;;90.93;21.65;;;;;;;;;;5071497;28;20044;-74
2022/07/26 04:02:20;;;;;;;45.80;9.57;;;;;;;;;;5068486;28;20529;-76
2022/07/26 04:04:47;;;;;;;34.05;6.97;;;;;;;;;;5067343;28;20479;-76
2022/07/26 04:07:13;;;;;;;59.08;7.90;;;;;;;;;;5066670;28;20036;-73
2022/07/26 04:09:40;;;;;;;21.42;5.50;;;;;;;;;;5067383;28;20468;-74
2022/07/26 04:12:06;;;;;;;68.88;8.68;;;;;;;;;;5069314;28;20119;-75
2022/07/26 04:14:33;;;;;;;39.22;7.10;;;;;;;;;;5070341;28;20123;-75
2022/07/26 04:16:59;;;;;;;18.55;5.45;;;;;;;;;;5067657;28;20060;-75
2022/07/26 04:19:26;;;;;;;68.18;8.88;;;;;;;;;;5067731;28;20037;-76
2022/07/26 04:21:53;;;;;;;49.50;6.68;;;;;;;;;;5067976;28;20041;-75
2022/07/26 04:24:19;;;;;;;24.35;4.88;;;;;;;;;;5067627;28;20120;-74
2022/07/26 04:26:51;;;;;;;53.05;7.13;;;;;;;;;;5068201;28;20044;-75
2022/07/26 04:29:17;;;;;;;58.80;6.93;;;;;;;;;;5067840;28;20060;-74
2022/07/26 04:31:44;;;;;;;35.28;5.95;;;;;;;;;;5068340;28;20060;-73
2022/07/26 04:34:10;;;;;;;28.90;5.53;;;;;;;;;;5066917;28;20042;-74
2022/07/26 04:36:37;;;;;;;54.90;6.97;;;;;;;;;;5069272;28;20036;-71
2022/07/26 04:39:04;;;;;;;37.28;5.95;;;;;;;;;;5067053;28;20053;-69
2022/07/26 04:41:30;;;;;;;15.63;5.18;;;;;;;;;;5069998;28;20040;-69
2022/07/26 04:43:57;;;;;;;70.97;7.90;;;;;;;;;;5067941;28;20123;-68
2022/07/26 04:46:24;;;;;;;22.55;5.00;;;;;;;;;;5067422;28;20040;-68
2022/07/26 04:48:50;;;;;;;35.83;5.60;;;;;;;;;;5067300;28;20044;-68
2022/07/26 04:51:17;;;;;;;74.88;8.48;;;;;;;;;;5067325;28;20045;-69
2022/07/26 04:53:43;;;;;;;34.92;6.07;;;;;;;;;;5071187;28;20075;-70
2022/07/26 04:56:10;;;;;;;30.02;6.25;;;;;;;;;;5066802;28;20044;-69
2022/07/26 04:58:37;;;;;;;28.52;5.55;;;;;;;;;;5066715;28;20532;-71
2022/07/26 05:01:03;;;;;;;31.85;6.05;;;;;;;;;;5066862;28;20040;-71
2022/07/26 05:03:37;;;;;;;35.58;5.63;;;;;;;;;;5066172;28;20543;-71
2022/07/26 05:06:04;;;;;;;92.55;8.80;;;;;;;;;;5068268;28;20040;-72
2022/07/26 05:08:31;;;;;;;43.20;6.15;;;;;;;;;;5067558;28;20041;-72
2022/07/26 05:10:57;;;;;;;47.88;6.57;;;;;;;;;;5066347;28;20078;-72
2022/07/26 05:13:24;;;;;;;45.85;6.38;;;;;;;;;;5066919;28;20032;-72
2022/07/26 05:15:57;;;;;;;31.23;5.32;;;;;;;;;;5067817;28;20410;-72
2022/07/26 05:18:23;;;;;;;61.88;6.85;;;;;;;;;;5066946;28;20402;-72
2022/07/26 05:20:51;;;;;;;67.38;7.30;;;;;;;;;;5071270;28;20040;-72
2022/07/26 05:23:19;;;;;;;51.83;6.07;;;;;;;;;;5066787;28;20044;-67
2022/07/26 05:25:45;;;;;;;74.90;8.10;;;;;;;;;;5065241;28;20127;-70
2022/07/26 05:28:12;;;;;;;77.78;8.00;;;;;;;;;;5064613;28;20452;-70
2022/07/26 05:30:39;;;;;;;28.40;5.20;;;;;;;;;;5064554;28;20884;-71
2022/07/26 05:33:05;;;;;;;64.65;7.65;;;;;;;;;;5067069;28;20040;-71
2022/07/26 05:35:32;;;;;;;59.45;6.97;;;;;;;;;;5067884;28;20123;-71
2022/07/26 05:37:58;;;;;;;50.88;6.35;;;;;;;;;;5064445;28;20075;-71
2022/07/26 05:40:25;;;;;;;50.25;5.85;;;;;;;;;;5064361;28;20032;-71
2022/07/26 05:42:51;;;;;;;54.65;6.50;;;;;;;;;;5068475;28;20075;-70
2022/07/26 05:45:18;;;;;;;24.20;4.75;;;;;;;;;;5069025;28;20480;-73
2022/07/26 05:47:47;;;;;;;45.03;5.97;;;;;;;;;;5066896;28;20136;-70
2022/07/26 05:50:14;;;;;;;46.05;6.47;;;;;;;;;;5066149;28;20064;-70
2022/07/26 05:52:40;;;;;;;22.42;4.82;;;;;;;;;;5066136;28;20048;-71
2022/07/26 05:55:07;;;;;;;34.38;5.53;;;;;;;;;;5066171;28;20101;-70
2022/07/26 05:57:34;;;;;;;54.10;6.30;;;;;;;;;;5066535;28;20116;-70
2022/07/26 06:00:00;;;;;;;43.17;5.80;;;;;;;;;;5069407;28;20091;-69
2022/07/26 06:02:37;;;;;;;13.68;4.07;;;;;;;;;;5069907;28;20045;-69
2022/07/26 06:05:04;;;;;;;50.83;6.20;;;;;;;;;;5066219;28;20478;-69
2022/07/26 06:07:30;;;;;;;22.52;4.28;;;;;;;;;;5065954;28;20556;-69
2022/07/26 06:09:57;;;;;;;26.98;4.50;;;;;;;;;;5066001;28;20047;-69
2022/07/26 06:12:23;;;;;;;133.98;11.25;;;;;;;;;;5066273;28;20041;-68
2022/07/26 06:14:50;;;;;;;25.15;4.45;;;;;;;;;;5066874;28;20150;-69
2022/07/26 06:17:17;;;;;;;30.05;4.75;;;;;;;;;;5069134;28;20131;-69
2022/07/26 06:19:43;;;;;;;37.80;5.50;;;;;;;;;;5065636;28;20483;-70
2022/07/26 06:22:13;;;;;;;46.22;6.05;;;;;;;;;;5065526;28;20110;-69
2022/07/26 06:24:40;;;;;;;12.20;3.88;;;;;;;;;;5066232;28;20033;-69
2022/07/26 06:27:06;;;;;;;73.32;7.95;;;;;;;;;;5067516;28;20044;-70
2022/07/26 06:29:33;;;;;;;27.00;4.47;;;;;;;;;;5069104;28;20127;-69
2022/07/26 06:31:59;;;;;;;40.22;5.35;;;;;;;;;;5066634;28;20087;-69
2022/07/26 06:34:26;;;;;;;54.45;6.70;;;;;;;;;;5065495;28;20037;-69
2022/07/26 06:36:52;;;;;;;22.05;4.97;;;;;;;;;;5067934;28;20456;-69
2022/07/26 06:39:19;;;;;;;33.38;4.72;;;;;;;;;;5069528;28;20151;-69
2022/07/26 06:41:46;;;;;;;41.20;5.20;;;;;;;;;;5073652;28;20111;-69
2022/07/26 06:44:12;;;;;;;21.05;4.15;;;;;;;;;;5069488;28;20043;-70
2022/07/26 06:46:39;;;;;;;17.52;3.92;;;;;;;;;;5070906;28;20120;-69
2022/07/26 06:49:05;;;;;;;32.63;4.80;;;;;;;;;;5068899;28;20068;-70
2022/07/26 06:51:32;;;;;;;39.33;4.40;;;;;;;;;;5069144;28;20124;-70
2022/07/26 06:53:59;;;;;;;45.17;5.30;;;;;;;;;;5071925;28;20041;-70
2022/07/26 06:56:26;;;;;;;52.60;5.63;;;;;;;;;;5070869;28;20148;-70
2022/07/26 06:58:54;;;;;;;25.23;4.05;;;;;;;;;;5072230;28;20044;-69
2022/07/26 07:01:21;;;;;;;37.53;5.07;;;;;;;;;;5072335;28;20032;-70
2022/07/26 07:04:07;;;;;;;21.40;4.03;;;;;;;;;;5069062;28;20490;-70
2022/07/26 07:06:34;;;;;;;38.22;4.78;;;;;;;;;;5068855;28;20087;-70
2022/07/26 07:09:01;;;;;;;41.95;5.57;;;;;;;;;;5071547;28;20171;-69
2022/07/26 07:11:28;;;;;;;29.25;5.03;;;;;;;;;;5070745;28;20045;-69
2022/07/26 07:13:55;;;;;;;49.47;4.82;;;;;;;;;;5068804;28;20072;-70
2022/07/26 07:16:21;;;;;;;46.72;5.53;;;;;;;;;;5068397;28;20497;-69
2022/07/26 07:18:50;;;;;;;39.17;5.43;;;;;;;;;;5068845;28;20140;-69
2022/07/26 07:21:16;;;;;;;31.15;4.47;;;;;;;;;;5069428;28;20067;-70
2022/07/26 07:23:43;;;;;;;44.80;4.95;;;;;;;;;;5072040;28;20466;-70
2022/07/26 07:26:09;;;;;;;10.65;3.22;;;;;;;;;;5068816;28;20032;-70
2022/07/26 07:28:37;;;;;;;17.65;3.78;;;;;;;;;;5069430;28;20533;-69
2022/07/26 07:31:04;;;;;;;39.72;5.28;;;;;;;;;;5068271;28;20053;-69
2022/07/26 07:33:31;;;;;;;46.20;5.90;;;;;;;;;;5068392;28;20160;-69
2022/07/26 07:36:17;;;;;;;22.30;3.92;;;;;;;;;;5069464;28;20472;-69
2022/07/26 07:38:44;;;;;;;48.17;5.63;;;;;;;;;;5072195;28;20449;-69
2022/07/26 07:41:11;;;;;;;18.83;4.22;;;;;;;;;;5068002;28;20044;-69
2022/07/26 07:43:37;;;;;;;28.10;4.63;;;;;;;;;;5068394;28;20135;-69
2022/07/26 07:46:04;;;;;;;47.97;5.40;;;;;;;;;;5068402;28;20127;-69
2022/07/26 07:48:31;;;;;;;25.88;4.22;;;;;;;;;;5068689;28;20487;-69
2022/07/26 07:50:57;;;;;;;33.20;4.47;;;;;;;;;;5071820;28;20045;-69
2022/07/26 07:53:25;;;;;;;34.80;4.80;;;;;;;;;;5069141;28;20036;-68
2022/07/26 07:55:51;;;;;;;33.55;4.40;;;;;;;;;;5067766;28;20048;-68
2022/07/26 07:58:20;;;;;;;35.38;4.57;;;;;;;;;;5068117;28;20093;-68
2022/07/26 08:00:47;;;;;;;50.28;5.47;;;;;;;;;;5067839;28;20041;-68
2022/07/26 08:03:14;;;;;;;36.13;4.93;;;;;;;;;;5069097;28;20399;-68
2022/07/26 08:05:45;;;;;;;25.13;4.30;;;;;;;;;;5071962;28;20087;-68
2022/07/26 08:08:15;;;;;;;29.05;4.90;;;;;;;;;;5070881;28;20450;-68
2022/07/26 08:10:42;;;;;;;14.30;4.22;;;;;;;;;;5070775;28;20040;-68
2022/07/26 08:13:17;;;;;;;66.10;6.88;;;;;;;;;;5063123;28;20437;-68
2022/07/26 08:15:46;;;;;;;38.83;5.65;;;;;;;;;;5071363;28;20056;-68
2022/07/26 08:18:14;;;;;;;37.30;5.03;;;;;;;;;;5069044;28;20128;-68
2022/07/26 08:20:42;;;;;;;44.92;5.38;;;;;;;;;;5070873;28;20406;-68
2022/07/26 08:23:08;;;;;;;31.88;4.80;;;;;;;;;;5062427;28;20041;-68
2022/07/26 08:25:35;;;;;;;23.98;3.42;;;;;;;;;;5070959;28;20043;-68
2022/07/26 08:28:11;;;;;;;40.60;5.68;;;;;;;;;;5067284;28;20249;-67
2022/07/26 08:30:57;;;;;;;31.83;4.70;;;;;;;;;;5071042;28;20068;-68
2022/07/26 08:33:24;;;;;;;85.00;7.78;;;;;;;;;;5067209;28;20064;-67
2022/07/26 08:35:51;;;;;;;41.17;5.20;;;;;;;;;;5067803;28;20127;-67
2022/07/26 08:38:23;;;;;;;;;;;;;;;;;;5067857;28;20037;-68
2022/07/26 08:40:50;;;;;;;78.57;7.50;;;;;;;;;;5067085;28;19967;-68
2022/07/26 08:43:17;;;;;;;28.67;4.60;;;;;;;;;;5067484;28;20134;-67
2022/07/26 08:45:44;;;;;;;26.38;4.05;;;;;;;;;;5067119;28;20116;-67
2022/07/26 08:48:11;;;;;;;45.38;5.57;;;;;;;;;;5069794;28;20076;-67
2022/07/26 08:50:43;;;;;;;46.10;5.32;;;;;;;;;;5071941;28;20040;-67
2022/07/26 08:53:11;;;;;;;45.42;5.85;;;;;;;;;;5066271;28;20529;-67
2022/07/26 08:55:38;;;;;;;49.58;5.85;;;;;;;;;;5066820;28;20048;-68
2022/07/26 08:58:25;;;;;;;64.55;6.32;;;;;;;;;;5066618;28;20036;-67
2022/07/26 09:01:04;;;;;;;36.85;5.35;;;;;;;;;;5066289;28;20068;-67
2022/07/26 09:03:31;;;;;;;25.88;4.38;;;;;;;;;;5066885;28;20052;-68
2022/07/26 09:06:09;;;;;;;109.63;9.90;;;;;;;;;;5070488;28;20037;-67
2022/07/26 09:08:36;;;;;;;26.98;4.57;;;;;;;;;;5069424;28;20123;-67
2022/07/26 09:11:22;;;;;;;39.42;6.00;;;;;;;;;;5069749;28;20410;-67
2022/07/26 09:14:09;;;;;;;35.35;5.90;;;;;;;;;;5064238;28;20040;-68
2022/07/26 09:16:36;;;;;;;61.90;6.65;;;;;;;;;;5064791;28;20047;-68
2022/07/26 09:19:17;;;;;;;30.08;8.10;;;;;;;;;;5068415;28;20510;-68
2022/07/26 09:21:45;;;;;;;65.85;9.90;;;;;;;;;;5070489;28;20033;-68
2022/07/26 09:24:12;;;;;;;66.90;10.00;;;;;;;;;;5070300;28;20040;-67
2022/07/26 09:26:38;;;;;;;53.03;9.85;;;;;;;;;;5071200;28;20043;-67
2022/07/26 09:29:09;;;;;;;56.78;6.22;;;;;;;;;;5066118;28;20091;-68
2022/07/26 09:31:37;;;;;;;42.78;5.32;;;;;;;;;;5066719;28;20561;-67
2022/07/26 09:34:05;;;;;;;17.98;3.90;;;;;;;;;;5062734;28;20049;-67
2022/07/26 09:36:32;;;;;;;54.78;6.32;;;;;;;;;;5066519;28;20037;-67
2022/07/26 09:39:00;;;;;;;34.80;5.00;;;;;;;;;;5070287;28;20044;-67
2022/07/26 09:41:28;;;;;;;27.27;5.40;;;;;;;;;;5067778;28;20076;-68
2022/07/26 09:43:58;;;;;;;44.10;5.97;;;;;;;;;;5066483;28;20040;-67
2022/07/26 09:46:26;;;;;;;32.22;5.05;;;;;;;;;;5066205;28;20029;-66
2022/07/26 09:48:54;;;;;;;25.65;4.47;;;;;;;;;;5066240;28;20047;-66
2022/07/26 09:51:42;;;;;;;17.02;4.28;;;;;;;;;;5068414;28;20037;-66
2022/07/26 09:54:09;;;;;;;41.30;5.40;;;;;;;;;;5067381;28;20083;-66
2022/07/26 09:56:43;;;;;;;27.13;5.22;;;;;;;;;;5071281;28;20044;-66
2022/07/26 09:59:11;;;;;;;22.58;4.72;;;;;;;;;;5069708;28;20119;-67
2022/07/26 10:01:37;;;;;;;54.40;7.47;;;;;;;;;;5069186;28;20123;-66
2022/07/26 10:04:04;;;;;;;275.67;24.70;;;;;;;;;;5068311;28;20041;-66
2022/07/26 10:06:30;;;;;;;61.28;6.82;;;;;;;;;;5069603;28;20906;-66
2022/07/26 10:08:58;;;;;;;45.80;5.72;;;;;;;;;;5070397;28;20045;-66
2022/07/26 10:11:25;;;;;;;45.30;6.30;;;;;;;;;;5068845;28;20098;-66
2022/07/26 10:13:52;;;;;;;20.48;4.53;;;;;;;;;;5073381;28;20045;-66
2022/07/26 10:16:31;;;;;;;74.85;8.15;;;;;;;;;;5070171;28;20040;-65
2022/07/26 10:19:01;;;;;;;31.10;5.63;;;;;;;;;;5073723;28;20041;-66
2022/07/26 10:21:29;;;;;;;34.17;5.68;;;;;;;;;;5073278;28;20086;-66
2022/07/26 10:23:56;;;;;;;21.42;5.10;;;;;;;;;;5074490;28;20491;-66
2022/07/26 10:26:32;;;;;;;40.47;6.13;;;;;;;;;;5074260;28;20159;-66
2022/07/26 10:29:17;;;;;;;59.72;7.18;;;;;;;;;;5073021;28;20490;-66
2022/07/26 10:31:46;;;;;;;21.30;5.05;;;;;;;;;;5070587;28;20500;-66
2022/07/26 10:34:30;;;;;;;76.10;8.52;;;;;;;;;;5069439;28;20040;-65
2022/07/26 10:37:01;;;;;;;35.38;6.45;;;;;;;;;;5070005;28;20048;-65
2022/07/26 10:39:27;;;;;;;66.68;7.63;;;;;;;;;;5069529;28;20041;-66
2022/07/26 10:42:01;;;;;;;31.95;6.38;;;;;;;;;;5074605;28;20444;-65
2022/07/26 10:44:30;;;;;;;23.58;5.00;;;;;;;;;;5070679;28;20041;-65
2022/07/26 10:46:56;;;;;;;66.47;7.88;;;;;;;;;;5069130;28;20135;-66
2022/07/26 10:49:29;;;;;;;40.97;6.53;;;;;;;;;;5069520;28;20497;-66
2022/07/26 10:52:04;;;;;;;30.50;6.25;;;;;;;;;;5069504;28;20044;-65
2022/07/26 10:54:30;;;;;;;38.92;6.28;;;;;;;;;;5069415;28;20068;-66
2022/07/26 10:56:57;;;;;;;54.53;7.30;;;;;;;;;;5074045;28;20053;-65
2022/07/26 10:59:33;;;;;;;63.35;8.65;;;;;;;;;;5069438;28;20075;-65
2022/07/26 11:02:20;;;;;;;47.13;7.05;;;;;;;;;;5070007;28;20048;-65
2022/07/26 11:04:47;;;;;;;50.83;7.72;;;;;;;;;;5063895;28;20036;-66
2022/07/26 11:07:14;;;;;;;38.65;6.70;;;;;;;;;;5068861;28;20509;-65
2022/07/26 11:09:41;;;;;;;30.55;6.07;;;;;;;;;;5068829;28;20108;-65
2022/07/26 11:12:14;;;;;;;43.05;7.18;;;;;;;;;;5071671;28;20055;-65
2022/07/26 11:14:41;;;;;;;119.43;11.43;;;;;;;;;;5071308;28;20494;-66
2022/07/26 11:17:23;;;;;;;37.58;6.20;;;;;;;;;;5068731;28;20056;-65
2022/07/26 11:19:50;;;;;;;52.22;7.30;;;;;;;;;;5068710;28;20124;-65
2022/07/26 11:22:17;;;;;;;35.55;6.80;;;;;;;;;;5067966;28;20076;-65
2022/07/26 11:24:43;;;;;;;50.75;7.03;;;;;;;;;;5067996;28;20033;-65
2022/07/26 11:27:10;;;;;;;59.05;8.20;;;;;;;;;;5071225;28;20136;-65
2022/07/26 11:29:37;;;;;;;45.33;7.43;;;;;;;;;;5070481;28;20498;-66
2022/07/26 11:32:27;;;;;;;56.90;7.15;;;;;;;;;;5068225;28;20053;-65
2022/07/26 11:35:00;;;;;;;9.80;4.50;;;;;;;;;;5068767;28;20056;-66
2022/07/26 11:37:27;;;;;;;63.47;7.93;;;;;;;;;;5068057;28;20044;-66
2022/07/26 11:39:53;;;;;;;40.58;6.00;;;;;;;;;;5069003;28;20123;-65
2022/07/26 11:42:20;;;;;;;55.20;7.40;;;;;;;;;;5069114;28;20570;-65
2022/07/26 11:44:48;;;;;;;48.72;6.75;;;;;;;;;;5072124;28;20463;-65
2022/07/26 11:47:16;;;;;;;29.73;5.90;;;;;;;;;;5068180;28;20121;-65
2022/07/26 11:49:42;;;;;;;29.85;5.80;;;;;;;;;;5068213;28;20479;-65
2022/07/26 11:52:30;;;;;;;42.85;6.85;;;;;;;;;;5067892;28;20062;-65
2022/07/26 11:54:57;;;;;;;17.45;5.40;;;;;;;;;;5068236;28;20167;-65
2022/07/26 11:57:28;;;;;;;61.28;8.02;;;;;;;;;;5068535;28;20497;-66
2022/07/26 11:59:55;;;;;;;20.67;5.60;;;;;;;;;;5068400;28;20090;-66
2022/07/26 12:02:21;;;;;;;24.58;5.82;;;;;;;;;;5070104;28;20131;-67
2022/07/26 12:04:48;;;;;;;64.90;8.23;;;;;;;;;;5067872;28;20418;-66
2022/07/26 12:07:17;;;;;;;39.55;6.72;;;;;;;;;;5067699;28;20043;-69
2022/07/26 12:09:46;;;;;;;46.05;6.85;;;;;;;;;;5069987;28;20044;-77
2022/07/26 12:12:19;;;;;;;67.35;7.82;;;;;;;;;;5070058;28;20032;-78
2022/07/26 12:14:54;;;;;;;22.67;5.28;;;;;;;;;;5071398;28;20044;-78
2022/07/26 12:17:21;;;;;;;56.58;7.10;;;;;;;;;;5067447;28;20135;-78
2022/07/26 12:19:47;;;;;;;19.63;4.88;;;;;;;;;;5067697;28;20047;-77
2022/07/26 12:22:18;;;;;;;106.78;10.52;;;;;;;;;;5067256;28;20044;-78
2022/07/26 12:24:44;;;;;;;55.60;6.93;;;;;;;;;;5067810;28;20040;-77
2022/07/26 12:27:13;;;;;;;100.65;9.90;;;;;;;;;;5071207;28;20410;-78
2022/07/26 12:29:41;;;;;;;32.70;6.05;;;;;;;;;;5072328;28;20185;-80
2022/07/26 12:32:11;;;;;;;63.97;7.47;;;;;;;;;;5062600;28;20585;-78
2022/07/26 12:34:39;;;;;;;52.60;6.80;;;;;;;;;;5067439;28;20487;-78
2022/07/26 12:37:05;;;;;;;26.55;5.43;;;;;;;;;;5062843;28;20075;-79
2022/07/26 12:39:32;;;;;;;50.58;6.90;;;;;;;;;;5067170;28;20554;-80
2022/07/26 12:41:59;;;;;;;24.05;5.57;;;;;;;;;;5071916;28;20044;-79
2022/07/26 12:44:25;;;;;;;72.22;8.10;;;;;;;;;;5067792;28;20464;-79
2022/07/26 12:46:52;;;;;;;39.40;6.13;;;;;;;;;;5070669;28;20087;-78
2022/07/26 12:49:18;;;;;;;73.82;9.10;;;;;;;;;;5066863;28;20047;-77
2022/07/26 12:51:45;;;;;;;28.85;6.32;;;;;;;;;;5067034;28;20132;-78
2022/07/26 12:54:11;;;;;;;80.68;9.13;;;;;;;;;;5069270;28;20040;-78
2022/07/26 12:56:39;;;;;;;63.05;8.32;;;;;;;;;;5068912;28;20590;-77
2022/07/26 12:59:05;;;;;;;31.55;6.43;;;;;;;;;;5067189;28;20072;-77
2022/07/26 13:01:32;;;;;;;65.05;8.30;;;;;;;;;;5070633;28;20036;-77
2022/07/26 13:03:59;;;;;;;29.08;6.80;;;;;;;;;;5069116;28;20060;-76
2022/07/26 13:06:26;;;;;;;55.78;8.55;;;;;;;;;;5067488;28;20040;-74
2022/07/26 13:08:52;;;;;;;98.82;11.45;;;;;;;;;;5070579;28;20044;-74
2022/07/26 13:11:19;;;;;;;64.38;9.15;;;;;;;;;;5066292;28;20123;-74
2022/07/26 13:13:45;;;;;;;30.48;8.15;;;;;;;;;;5066507;28;20094;-78
2022/07/26 13:16:12;;;;;;;108.70;12.23;;;;;;;;;;5066582;28;20123;-76
2022/07/26 13:18:38;;;;;;;63.95;10.02;;;;;;;;;;5070985;28;20064;-77
2022/07/26 13:21:05;;;;;;;40.20;8.65;;;;;;;;;;5070222;28;20072;-74
2022/07/26 13:23:32;;;;;;;71.13;11.25;;;;;;;;;;5062561;28;20048;-77
2022/07/26 13:26:01;;;;;;;73.00;11.70;;;;;;;;;;5066157;28;20068;-77
2022/07/26 13:28:28;;;;;;;33.65;8.65;;;;;;;;;;5066272;28;20127;-76
2022/07/26 13:30:55;;;;;;;77.78;12.43;;;;;;;;;;5069600;28;20079;-73
2022/07/26 13:33:21;;;;;;;76.15;12.90;;;;;;;;;;5070627;28;20041;-74
2022/07/26 13:35:48;;;;;;;32.58;10.27;;;;;;;;;;5071858;28;20037;-75
2022/07/26 13:38:17;;;;;;;97.18;16.40;;;;;;;;;;5069351;28;20040;-75
2022/07/26 13:40:44;;;;;;;65.13;15.68;;;;;;;;;;5065930;28;20040;-72
2022/07/26 13:43:11;;;;;;;78.82;22.02;;;;;;;;;;5070405;28;20132;-69
2022/07/26 13:45:37;;;;;;;91.80;27.58;;;;;;;;;;5065806;28;20060;-70
2022/07/26 13:48:04;;;;;;;82.25;30.25;;;;;;;;;;5070039;28;20049;-70
2022/07/26 13:50:30;;;;;;;81.05;38.97;;;;;;;;;;5067205;28;20061;-67
2022/07/26 13:52:57;;;;;;;111.90;40.92;;;;;;;;;;5065840;28;20053;-67
2022/07/26 13:55:24;;;;;;;135.50;47.60;;;;;;;;;;5065870;28;20037;-66
2022/07/26 13:57:50;;;;;;;108.68;46.10;;;;;;;;;;5066154;28;20047;-67
2022/07/26 14:00:21;;;;;;;117.57;37.92;;;;;;;;;;5067478;28;20044;-66
2022/07/26 14:02:48;;;;;;;87.05;42.72;;;;;;;;;;5070128;28;20132;-68
2022/07/26 14:05:15;;;;;;;122.15;44.03;;;;;;;;;;5065654;28;20072;-68
2022/07/26 14:07:42;;;;;;;179.13;49.17;;;;;;;;;;5064779;28;20044;-67
2022/07/26 14:10:09;;;;;;;112.85;42.92;;;;;;;;;;5065765;28;20035;-68
2022/07/26 14:12:36;;;;;;;104.70;38.67;;;;;;;;;;5066161;28;20049;-70
2022/07/26 14:15:03;;;;;;;93.65;38.22;;;;;;;;;;5070328;28;20498;-69
2022/07/26 14:17:38;;;;;;;98.70;36.88;;;;;;;;;;5070237;28;20064;-72
2022/07/26 14:20:05;;;;;;;78.18;39.35;;;;;;;;;;5066041;28;20044;-73
2022/07/26 14:22:32;;;;;;;126.22;42.35;;;;;;;;;;5065277;28;20036;-74
2022/07/26 14:24:58;;;;;;;97.50;42.92;;;;;;;;;;5070193;28;20037;-72
2022/07/26 14:27:25;;;;;;;122.78;49.40;;;;;;;;;;5067395;28;20041;-72
2022/07/26 14:29:52;;;;;;;127.88;49.40;;;;;;;;;;5068697;28;20049;-72
2022/07/26 14:32:18;;;;;;;114.20;45.78;;;;;;;;;;5065788;28;20123;-72
2022/07/26 14:34:48;;;;;;;83.38;40.83;;;;;;;;;;5068357;28;20033;-72